createdAt,value
2023-01-23T00:09:16.623Z,103222.06
2023-01-23T00:19:20.818Z,103228.72
2023-01-23T00:29:23.564Z,103237.88
2023-01-23T00:39:27.927Z,103245.16
2023-01-23T00:49:30.748Z,103257.53
2023-01-23T00:59:36.369Z,103245.50
2023-01-23T01:09:40.124Z,103245.81
2023-01-23T01:19:44.258Z,103240.44
2023-01-23T01:29:47.120Z,103246.44
2023-01-23T01:39:51.330Z,103264.97
2023-01-23T01:49:56.864Z,103265.44
2023-01-23T02:00:03.423Z,103252.94
2023-01-23T02:10:16.782Z,103249.94
2023-01-23T02:20:23.416Z,103248.97
2023-01-23T02:30:27.547Z,103254.81
2023-01-23T02:40:32.654Z,103252.78
2023-01-23T02:50:37.511Z,103250.06
2023-01-23T03:00:40.328Z,103263.53
2023-01-23T03:10:44.487Z,103257.22
2023-01-23T03:20:47.257Z,103267.19
2023-01-23T03:30:51.390Z,103269.72
2023-01-23T03:41:12.036Z,103266.72
2023-01-23T03:51:16.771Z,103272.72
2023-01-23T04:01:19.746Z,103278.72
2023-01-23T04:11:24.090Z,103265.59
2023-01-23T04:21:27.053Z,103275.41
2023-01-23T04:31:31.612Z,103276.34
2023-01-23T04:41:34.961Z,103274.91
2023-01-23T04:51:50.195Z,103292.03
2023-01-23T05:01:56.707Z,103287.59
2023-01-23T05:12:02.189Z,103291.88
2023-01-23T05:22:08.463Z,103301.66
2023-01-23T05:32:12.777Z,103301.22
2023-01-23T05:42:18.346Z,103311.81
2023-01-23T05:52:25.239Z,103319.09
2023-01-23T06:02:28.265Z,103320.97
2023-01-23T06:12:51.304Z,103335.22
2023-01-23T06:22:54.520Z,103337.59
2023-01-23T06:32:58.873Z,103337.91
2023-01-23T06:43:10.969Z,103337.78
2023-01-23T06:53:17.003Z,103344.09
2023-01-23T07:03:21.353Z,103356.44
2023-01-23T07:13:25.987Z,103366.56
2023-01-23T07:23:30.160Z,103363.41
2023-01-23T07:33:34.742Z,103391.44
2023-01-23T07:43:37.698Z,103385.91
2023-01-23T07:53:42.056Z,103403.16
2023-01-23T08:03:45.058Z,103412.81
2023-01-23T08:13:51.967Z,103411.09
2023-01-23T08:23:55.022Z,103423.09
2023-01-23T08:33:59.397Z,103419.47
2023-01-23T08:44:03.947Z,103429.13
2023-01-23T08:54:08.390Z,103444.66
2023-01-23T09:04:11.333Z,103432.13
2023-01-23T09:14:15.691Z,103448.28
2023-01-23T09:24:18.619Z,103454.94
2023-01-23T09:34:22.973Z,103427.38
2023-01-23T09:44:34.128Z,103443.19
2023-01-23T09:54:44.952Z,103461.69
2023-01-23T10:04:49.214Z,103471.72
2023-01-23T10:15:19.691Z,103455.72
2023-01-23T10:25:27.705Z,103468.16
2023-01-23T10:35:47.320Z,103464.00
2023-01-23T10:45:51.366Z,103458.00
2023-01-23T10:55:59.720Z,103455.50
2023-01-23T11:06:05.121Z,103453.03
2023-01-23T11:16:17.008Z,103454.53
2023-01-23T11:26:33.759Z,103450.66
2023-01-23T11:36:53.206Z,103442.13
2023-01-23T11:47:18.433Z,103440.28
2023-01-23T11:57:34.973Z,103447.44
2023-01-23T12:07:58.044Z,103449.19
2023-01-23T12:18:16.225Z,103455.59
2023-01-23T12:28:32.341Z,103454.69
2023-01-23T12:38:48.432Z,103444.44
2023-01-23T12:48:55.365Z,103442.91
2023-01-23T12:59:09.243Z,103439.47
2023-01-23T13:09:23.894Z,103433.84
2023-01-23T13:19:47.125Z,103444.34
2023-01-23T13:29:51.842Z,103431.91
2023-01-23T13:40:15.760Z,103455.91
2023-01-23T14:22:02.382Z,103459.78
2023-01-23T14:32:21.018Z,103462.81
2023-01-23T14:42:29.138Z,103448.94
2023-01-23T14:52:32.845Z,103417.16
2023-01-23T15:02:37.680Z,103408.28
2023-01-23T15:12:49.029Z,103401.22
2023-01-23T15:22:53.668Z,103392.69
2023-01-23T15:32:58.673Z,103401.09
2023-01-23T15:43:08.382Z,103408.13
2023-01-23T15:53:13.864Z,103428.13
2023-01-23T16:03:18.250Z,103449.81
2023-01-23T16:13:21.319Z,103455.41
2023-01-23T16:23:26.660Z,103450.50
2023-01-23T16:33:29.674Z,103445.84
2023-01-23T16:43:35.510Z,103437.94
2023-01-23T16:53:40.683Z,103455.25
2023-01-23T17:03:45.834Z,103459.50
2023-01-23T17:13:49.816Z,103465.06
2023-01-23T17:23:54.299Z,103471.84
2023-01-23T17:33:57.394Z,103474.56
2023-01-23T17:44:01.855Z,103476.91
2023-01-23T17:54:05.820Z,103475.19
2023-01-23T18:04:17.031Z,103466.94
2023-01-23T18:14:35.571Z,103486.94
2023-01-23T18:24:40.566Z,103501.53
2023-01-23T18:35:06.616Z,103500.41
2023-01-23T18:45:16.585Z,103501.06
2023-01-23T18:55:31.788Z,103502.47
2023-01-23T19:05:35.355Z,103492.19
2023-01-23T19:15:45.870Z,103505.00
2023-01-23T19:25:49.319Z,103515.00
2023-01-23T19:35:56.713Z,103518.66
2023-01-23T19:46:00.888Z,103511.53
2023-01-23T19:56:05.947Z,103526.75
2023-01-23T20:06:09.949Z,103517.06
2023-01-23T20:16:20.682Z,103532.94
2023-01-23T20:26:24.543Z,103534.06
2023-01-23T20:36:29.090Z,103539.72
2023-01-23T20:46:32.325Z,103535.63
2023-01-23T20:56:37.198Z,103536.88
2023-01-23T21:06:40.434Z,103535.47
2023-01-23T21:16:44.908Z,103528.97
2023-01-23T21:26:48.174Z,103525.63
2023-01-23T21:36:53.546Z,103525.94
2023-01-23T21:46:57.019Z,103539.44
2023-01-23T21:57:01.415Z,103548.47
2023-01-23T22:07:04.529Z,103540.88
2023-01-23T22:17:09.380Z,103546.09
2023-01-23T22:27:12.611Z,103540.06
2023-01-23T22:37:17.270Z,103535.13
2023-01-23T22:47:20.372Z,103542.75
2023-01-23T22:57:25.035Z,103550.50
2023-01-23T23:07:28.373Z,103561.94
2023-01-23T23:17:32.898Z,103571.28
2023-01-23T23:27:35.947Z,103559.41
2023-01-23T23:37:40.410Z,103550.53
2023-01-23T23:47:43.395Z,103541.00
2023-01-23T23:57:47.751Z,103550.22
